sensor_id;sensor_type;location;lat;lon;timestamp;P1;durP1;ratioP1;P2;durP2;ratioP2
40757;SDS011;26462;47.384;19.218;2022-11-10T00:00:39;119.85;;;33.15;;
40757;SDS011;26462;47.384;19.218;2022-11-10T00:03:25;143.13;;;35.38;;
40757;SDS011;26462;47.384;19.218;2022-11-10T00:06:12;133.55;;;34.25;;
40757;SDS011;26462;47.384;19.218;2022-11-10T00:08:58;125.25;;;34.08;;
40757;SDS011;26462;47.384;19.218;2022-11-10T00:11:43;151.00;;;36.53;;
40757;SDS011;26462;47.384;19.218;2022-11-10T00:14:29;129.48;;;34.63;;
40757;SDS011;26462;47.384;19.218;2022-11-10T00:17:34;130.32;;;34.63;;
40757;SDS011;26462;47.384;19.218;2022-11-10T00:20:20;127.32;;;32.10;;
40757;SDS011;26462;47.384;19.218;2022-11-10T00:23:05;111.70;;;31.45;;
40757;SDS011;26462;47.384;19.218;2022-11-10T00:25:51;125.13;;;31.70;;
40757;SDS011;26462;47.384;19.218;2022-11-10T00:28:36;124.15;;;32.85;;
40757;SDS011;26462;47.384;19.218;2022-11-10T00:31:22;112.88;;;34.20;;
40757;SDS011;26462;47.384;19.218;2022-11-10T00:34:12;127.40;;;33.30;;
40757;SDS011;26462;47.384;19.218;2022-11-10T00:36:59;127.18;;;32.45;;
40757;SDS011;26462;47.384;19.218;2022-11-10T00:39:45;118.75;;;34.63;;
40757;SDS011;26462;47.384;19.218;2022-11-10T00:42:30;124.22;;;35.50;;
40757;SDS011;26462;47.384;19.218;2022-11-10T00:45:16;145.95;;;36.30;;
40757;SDS011;26462;47.384;19.218;2022-11-10T00:48:02;138.98;;;38.10;;
40757;SDS011;26462;47.384;19.218;2022-11-10T00:50:47;145.35;;;36.50;;
40757;SDS011;26462;47.384;19.218;2022-11-10T00:53:33;130.55;;;33.67;;
40757;SDS011;26462;47.384;19.218;2022-11-10T00:56:19;137.13;;;35.63;;
40757;SDS011;26462;47.384;19.218;2022-11-10T00:59:05;137.98;;;33.78;;
40757;SDS011;26462;47.384;19.218;2022-11-10T01:01:51;141.20;;;37.35;;
40757;SDS011;26462;47.384;19.218;2022-11-10T01:04:37;126.45;;;31.63;;
40757;SDS011;26462;47.384;19.218;2022-11-10T01:07:22;127.85;;;33.70;;
40757;SDS011;26462;47.384;19.218;2022-11-10T01:10:08;146.45;;;37.70;;
40757;SDS011;26462;47.384;19.218;2022-11-10T01:12:54;128.00;;;31.95;;
40757;SDS011;26462;47.384;19.218;2022-11-10T01:15:40;145.57;;;39.05;;
40757;SDS011;26462;47.384;19.218;2022-11-10T01:18:26;155.52;;;37.05;;
40757;SDS011;26462;47.384;19.218;2022-11-10T01:21:12;130.63;;;35.50;;
40757;SDS011;26462;47.384;19.218;2022-11-10T01:23:58;144.93;;;33.95;;
40757;SDS011;26462;47.384;19.218;2022-11-10T01:26:44;129.10;;;32.92;;
40757;SDS011;26462;47.384;19.218;2022-11-10T01:29:29;132.93;;;35.95;;
40757;SDS011;26462;47.384;19.218;2022-11-10T01:32:15;124.88;;;33.75;;
40757;SDS011;26462;47.384;19.218;2022-11-10T01:35:00;121.25;;;31.77;;
40757;SDS011;26462;47.384;19.218;2022-11-10T01:37:45;123.25;;;35.40;;
40757;SDS011;26462;47.384;19.218;2022-11-10T01:40:31;128.88;;;32.65;;
40757;SDS011;26462;47.384;19.218;2022-11-10T01:43:17;121.32;;;33.40;;
40757;SDS011;26462;47.384;19.218;2022-11-10T01:46:04;121.15;;;32.38;;
40757;SDS011;26462;47.384;19.218;2022-11-10T01:48:51;119.13;;;32.53;;
40757;SDS011;26462;47.384;19.218;2022-11-10T01:52:00;125.05;;;32.10;;
40757;SDS011;26462;47.384;19.218;2022-11-10T01:54:57;121.35;;;31.88;;
40757;SDS011;26462;47.384;19.218;2022-11-10T01:57:42;120.45;;;32.17;;
40757;SDS011;26462;47.384;19.218;2022-11-10T02:00:29;117.80;;;32.03;;
40757;SDS011;26462;47.384;19.218;2022-11-10T02:03:18;125.60;;;33.00;;
40757;SDS011;26462;47.384;19.218;2022-11-10T02:06:15;136.95;;;35.03;;
40757;SDS011;26462;47.384;19.218;2022-11-10T02:09:03;123.05;;;32.75;;
40757;SDS011;26462;47.384;19.218;2022-11-10T02:11:50;111.60;;;30.67;;
40757;SDS011;26462;47.384;19.218;2022-11-10T02:14:37;129.73;;;33.25;;
40757;SDS011;26462;47.384;19.218;2022-11-10T02:17:23;127.53;;;33.80;;
40757;SDS011;26462;47.384;19.218;2022-11-10T02:20:09;112.80;;;31.52;;
40757;SDS011;26462;47.384;19.218;2022-11-10T02:22:56;117.72;;;32.72;;
40757;SDS011;26462;47.384;19.218;2022-11-10T02:25:41;137.90;;;35.88;;
40757;SDS011;26462;47.384;19.218;2022-11-10T02:28:27;139.95;;;36.10;;
40757;SDS011;26462;47.384;19.218;2022-11-10T02:31:17;123.35;;;33.28;;
40757;SDS011;26462;47.384;19.218;2022-11-10T02:34:03;133.15;;;33.95;;
40757;SDS011;26462;47.384;19.218;2022-11-10T02:36:48;132.25;;;34.17;;
40757;SDS011;26462;47.384;19.218;2022-11-10T02:39:34;144.00;;;34.42;;
40757;SDS011;26462;47.384;19.218;2022-11-10T02:42:21;150.85;;;35.05;;
40757;SDS011;26462;47.384;19.218;2022-11-10T02:45:06;138.60;;;32.80;;
40757;SDS011;26462;47.384;19.218;2022-11-10T02:47:52;139.52;;;34.22;;
40757;SDS011;26462;47.384;19.218;2022-11-10T02:50:38;134.23;;;33.35;;
40757;SDS011;26462;47.384;19.218;2022-11-10T02:53:24;139.68;;;37.95;;
40757;SDS011;26462;47.384;19.218;2022-11-10T02:56:09;127.22;;;35.08;;
40757;SDS011;26462;47.384;19.218;2022-11-10T02:58:56;152.52;;;36.28;;
40757;SDS011;26462;47.384;19.218;2022-11-10T03:01:41;147.32;;;35.88;;
40757;SDS011;26462;47.384;19.218;2022-11-10T03:04:27;145.20;;;35.55;;
40757;SDS011;26462;47.384;19.218;2022-11-10T03:07:13;161.65;;;35.78;;
40757;SDS011;26462;47.384;19.218;2022-11-10T03:09:58;135.27;;;33.30;;
40757;SDS011;26462;47.384;19.218;2022-11-10T03:12:44;149.65;;;35.20;;
40757;SDS011;26462;47.384;19.218;2022-11-10T03:15:29;147.40;;;35.40;;
40757;SDS011;26462;47.384;19.218;2022-11-10T03:18:15;183.10;;;38.55;;
40757;SDS011;26462;47.384;19.218;2022-11-10T03:21:01;160.23;;;37.20;;
40757;SDS011;26462;47.384;19.218;2022-11-10T03:23:47;156.50;;;33.97;;
40757;SDS011;26462;47.384;19.218;2022-11-10T03:26:32;132.48;;;31.27;;
40757;SDS011;26462;47.384;19.218;2022-11-10T03:29:18;146.20;;;34.08;;
40757;SDS011;26462;47.384;19.218;2022-11-10T03:32:03;146.18;;;37.10;;
40757;SDS011;26462;47.384;19.218;2022-11-10T03:34:49;137.88;;;32.17;;
40757;SDS011;26462;47.384;19.218;2022-11-10T03:37:34;149.93;;;34.35;;
40757;SDS011;26462;47.384;19.218;2022-11-10T03:40:20;148.57;;;34.35;;
40757;SDS011;26462;47.384;19.218;2022-11-10T03:43:05;143.75;;;33.38;;
40757;SDS011;26462;47.384;19.218;2022-11-10T03:45:51;126.90;;;33.95;;
40757;SDS011;26462;47.384;19.218;2022-11-10T03:48:36;136.93;;;33.30;;
40757;SDS011;26462;47.384;19.218;2022-11-10T03:51:22;142.40;;;34.95;;
40757;SDS011;26462;47.384;19.218;2022-11-10T03:54:08;129.98;;;33.35;;
40757;SDS011;26462;47.384;19.218;2022-11-10T03:56:53;137.23;;;33.33;;
40757;SDS011;26462;47.384;19.218;2022-11-10T03:59:39;134.52;;;31.50;;
40757;SDS011;26462;47.384;19.218;2022-11-10T04:02:24;135.15;;;31.70;;
40757;SDS011;26462;47.384;19.218;2022-11-10T04:05:10;140.07;;;30.30;;
40757;SDS011;26462;47.384;19.218;2022-11-10T04:08:15;126.20;;;31.10;;
40757;SDS011;26462;47.384;19.218;2022-11-10T04:11:20;122.40;;;31.58;;
40757;SDS011;26462;47.384;19.218;2022-11-10T04:14:24;130.05;;;32.08;;
40757;SDS011;26462;47.384;19.218;2022-11-10T04:17:29;114.28;;;28.40;;
40757;SDS011;26462;47.384;19.218;2022-11-10T04:20:16;125.47;;;33.05;;
40757;SDS011;26462;47.384;19.218;2022-11-10T04:23:02;124.90;;;31.92;;
40757;SDS011;26462;47.384;19.218;2022-11-10T04:26:13;124.22;;;29.75;;
40757;SDS011;26462;47.384;19.218;2022-11-10T04:29:16;132.88;;;33.25;;
40757;SDS011;26462;47.384;19.218;2022-11-10T04:32:03;131.07;;;35.00;;
40757;SDS011;26462;47.384;19.218;2022-11-10T04:34:49;122.22;;;32.25;;
40757;SDS011;26462;47.384;19.218;2022-11-10T04:37:34;117.05;;;31.83;;
40757;SDS011;26462;47.384;19.218;2022-11-10T04:40:20;118.88;;;30.33;;
40757;SDS011;26462;47.384;19.218;2022-11-10T04:43:06;114.53;;;31.15;;
40757;SDS011;26462;47.384;19.218;2022-11-10T04:45:51;115.07;;;29.33;;
40757;SDS011;26462;47.384;19.218;2022-11-10T04:48:38;105.50;;;29.52;;
40757;SDS011;26462;47.384;19.218;2022-11-10T04:51:24;122.35;;;30.75;;
40757;SDS011;26462;47.384;19.218;2022-11-10T04:54:12;118.90;;;30.55;;
40757;SDS011;26462;47.384;19.218;2022-11-10T04:56:58;115.47;;;28.52;;
40757;SDS011;26462;47.384;19.218;2022-11-10T04:59:43;116.10;;;28.08;;
40757;SDS011;26462;47.384;19.218;2022-11-10T05:02:29;120.78;;;30.83;;
40757;SDS011;26462;47.384;19.218;2022-11-10T05:05:21;114.82;;;29.95;;
40757;SDS011;26462;47.384;19.218;2022-11-10T05:08:06;117.80;;;30.00;;
40757;SDS011;26462;47.384;19.218;2022-11-10T05:10:53;124.38;;;31.48;;
40757;SDS011;26462;47.384;19.218;2022-11-10T05:13:38;121.72;;;32.95;;
40757;SDS011;26462;47.384;19.218;2022-11-10T05:16:25;126.75;;;30.58;;
40757;SDS011;26462;47.384;19.218;2022-11-10T05:19:10;116.00;;;30.95;;
40757;SDS011;26462;47.384;19.218;2022-11-10T05:21:56;119.25;;;32.95;;
40757;SDS011;26462;47.384;19.218;2022-11-10T05:24:42;116.78;;;31.73;;
40757;SDS011;26462;47.384;19.218;2022-11-10T05:27:27;116.28;;;31.20;;
40757;SDS011;26462;47.384;19.218;2022-11-10T05:30:13;120.82;;;31.92;;
40757;SDS011;26462;47.384;19.218;2022-11-10T05:32:59;108.25;;;29.48;;
40757;SDS011;26462;47.384;19.218;2022-11-10T05:35:45;106.43;;;28.67;;
40757;SDS011;26462;47.384;19.218;2022-11-10T05:38:33;107.72;;;30.60;;
40757;SDS011;26462;47.384;19.218;2022-11-10T05:41:26;114.60;;;29.95;;
40757;SDS011;26462;47.384;19.218;2022-11-10T05:44:11;98.72;;;29.98;;
40757;SDS011;26462;47.384;19.218;2022-11-10T05:46:57;106.32;;;29.83;;
40757;SDS011;26462;47.384;19.218;2022-11-10T05:49:43;103.47;;;28.98;;
40757;SDS011;26462;47.384;19.218;2022-11-10T05:52:28;103.93;;;31.25;;
40757;SDS011;26462;47.384;19.218;2022-11-10T05:55:15;102.65;;;30.02;;
40757;SDS011;26462;47.384;19.218;2022-11-10T05:58:02;108.40;;;30.70;;
40757;SDS011;26462;47.384;19.218;2022-11-10T06:00:48;102.28;;;29.67;;
40757;SDS011;26462;47.384;19.218;2022-11-10T06:03:33;108.28;;;30.50;;
40757;SDS011;26462;47.384;19.218;2022-11-10T06:06:19;99.28;;;29.35;;
40757;SDS011;26462;47.384;19.218;2022-11-10T06:09:06;107.78;;;30.20;;
40757;SDS011;26462;47.384;19.218;2022-11-10T06:11:53;106.32;;;30.23;;
40757;SDS011;26462;47.384;19.218;2022-11-10T06:14:38;102.50;;;29.58;;
40757;SDS011;26462;47.384;19.218;2022-11-10T06:17:24;96.55;;;28.90;;
40757;SDS011;26462;47.384;19.218;2022-11-10T06:20:10;149.60;;;52.58;;
40757;SDS011;26462;47.384;19.218;2022-11-10T06:25:45;190.38;;;67.07;;
40757;SDS011;26462;47.384;19.218;2022-11-10T06:28:30;168.52;;;59.47;;
40757;SDS011;26462;47.384;19.218;2022-11-10T06:31:16;139.93;;;46.63;;
40757;SDS011;26462;47.384;19.218;2022-11-10T06:34:02;131.23;;;43.92;;
40757;SDS011;26462;47.384;19.218;2022-11-10T06:36:47;104.90;;;37.45;;
40757;SDS011;26462;47.384;19.218;2022-11-10T06:39:32;98.95;;;32.17;;
40757;SDS011;26462;47.384;19.218;2022-11-10T06:42:18;88.60;;;28.50;;
40757;SDS011;26462;47.384;19.218;2022-11-10T06:45:04;98.00;;;33.50;;
40757;SDS011;26462;47.384;19.218;2022-11-10T06:47:59;95.32;;;30.83;;
40757;SDS011;26462;47.384;19.218;2022-11-10T06:50:45;90.88;;;28.85;;
40757;SDS011;26462;47.384;19.218;2022-11-10T06:53:31;101.32;;;29.25;;
40757;SDS011;26462;47.384;19.218;2022-11-10T06:56:17;83.95;;;27.63;;
40757;SDS011;26462;47.384;19.218;2022-11-10T06:59:03;74.35;;;27.30;;
40757;SDS011;26462;47.384;19.218;2022-11-10T07:01:49;71.90;;;26.42;;
40757;SDS011;26462;47.384;19.218;2022-11-10T07:04:34;77.63;;;24.35;;
40757;SDS011;26462;47.384;19.218;2022-11-10T07:07:20;79.70;;;25.33;;
40757;SDS011;26462;47.384;19.218;2022-11-10T07:10:06;70.43;;;25.10;;
40757;SDS011;26462;47.384;19.218;2022-11-10T07:12:55;72.30;;;25.27;;
40757;SDS011;26462;47.384;19.218;2022-11-10T07:15:42;70.28;;;24.40;;
40757;SDS011;26462;47.384;19.218;2022-11-10T07:18:27;64.85;;;22.48;;
40757;SDS011;26462;47.384;19.218;2022-11-10T07:21:13;66.68;;;25.13;;
40757;SDS011;26462;47.384;19.218;2022-11-10T07:23:59;66.82;;;22.27;;
40757;SDS011;26462;47.384;19.218;2022-11-10T07:26:44;69.60;;;24.85;;
40757;SDS011;26462;47.384;19.218;2022-11-10T07:29:30;63.17;;;22.50;;
40757;SDS011;26462;47.384;19.218;2022-11-10T07:32:15;65.80;;;22.55;;
40757;SDS011;26462;47.384;19.218;2022-11-10T07:35:01;54.08;;;21.17;;
40757;SDS011;26462;47.384;19.218;2022-11-10T07:37:46;59.05;;;21.17;;
40757;SDS011;26462;47.384;19.218;2022-11-10T07:40:32;45.80;;;18.95;;
40757;SDS011;26462;47.384;19.218;2022-11-10T07:43:19;47.90;;;19.08;;
40757;SDS011;26462;47.384;19.218;2022-11-10T07:46:06;45.28;;;17.90;;
40757;SDS011;26462;47.384;19.218;2022-11-10T07:48:51;47.13;;;18.40;;
40757;SDS011;26462;47.384;19.218;2022-11-10T07:51:37;47.80;;;18.30;;
40757;SDS011;26462;47.384;19.218;2022-11-10T07:54:23;44.33;;;16.70;;
40757;SDS011;26462;47.384;19.218;2022-11-10T07:57:08;49.25;;;17.27;;
40757;SDS011;26462;47.384;19.218;2022-11-10T07:59:53;45.42;;;17.52;;
40757;SDS011;26462;47.384;19.218;2022-11-10T08:02:42;51.85;;;19.52;;
40757;SDS011;26462;47.384;19.218;2022-11-10T08:05:27;50.63;;;17.52;;
40757;SDS011;26462;47.384;19.218;2022-11-10T08:08:13;44.42;;;17.23;;
40757;SDS011;26462;47.384;19.218;2022-11-10T08:10:59;45.13;;;17.70;;
40757;SDS011;26462;47.384;19.218;2022-11-10T08:13:44;48.28;;;18.52;;
40757;SDS011;26462;47.384;19.218;2022-11-10T08:16:30;45.97;;;17.65;;
40757;SDS011;26462;47.384;19.218;2022-11-10T08:19:16;44.00;;;17.73;;
40757;SDS011;26462;47.384;19.218;2022-11-10T08:22:01;37.05;;;15.13;;
40757;SDS011;26462;47.384;19.218;2022-11-10T08:24:47;39.15;;;15.02;;
40757;SDS011;26462;47.384;19.218;2022-11-10T08:27:32;39.65;;;15.43;;
40757;SDS011;26462;47.384;19.218;2022-11-10T08:30:18;37.58;;;15.05;;
40757;SDS011;26462;47.384;19.218;2022-11-10T08:33:04;34.22;;;13.85;;
40757;SDS011;26462;47.384;19.218;2022-11-10T08:35:51;40.58;;;15.68;;
40757;SDS011;26462;47.384;19.218;2022-11-10T08:38:38;40.53;;;16.25;;
40757;SDS011;26462;47.384;19.218;2022-11-10T08:41:24;39.20;;;15.05;;
40757;SDS011;26462;47.384;19.218;2022-11-10T08:44:09;43.90;;;16.35;;
40757;SDS011;26462;47.384;19.218;2022-11-10T08:47:00;48.80;;;17.05;;
40757;SDS011;26462;47.384;19.218;2022-11-10T08:49:46;53.55;;;18.83;;
40757;SDS011;26462;47.384;19.218;2022-11-10T08:52:32;48.03;;;17.85;;
40757;SDS011;26462;47.384;19.218;2022-11-10T08:55:18;47.28;;;16.17;;
40757;SDS011;26462;47.384;19.218;2022-11-10T08:58:04;45.80;;;16.00;;
40757;SDS011;26462;47.384;19.218;2022-11-10T09:00:52;49.15;;;17.40;;
40757;SDS011;26462;47.384;19.218;2022-11-10T09:03:38;49.65;;;18.17;;
40757;SDS011;26462;47.384;19.218;2022-11-10T09:06:24;54.85;;;20.75;;
40757;SDS011;26462;47.384;19.218;2022-11-10T09:09:09;43.72;;;17.85;;
40757;SDS011;26462;47.384;19.218;2022-11-10T09:11:55;44.70;;;15.57;;
40757;SDS011;26462;47.384;19.218;2022-11-10T09:14:40;48.45;;;17.17;;
40757;SDS011;26462;47.384;19.218;2022-11-10T09:17:26;45.05;;;18.08;;
40757;SDS011;26462;47.384;19.218;2022-11-10T09:20:12;46.47;;;17.63;;
40757;SDS011;26462;47.384;19.218;2022-11-10T09:23:04;46.50;;;16.73;;
40757;SDS011;26462;47.384;19.218;2022-11-10T09:25:52;49.20;;;17.95;;
40757;SDS011;26462;47.384;19.218;2022-11-10T09:28:39;51.60;;;19.98;;
40757;SDS011;26462;47.384;19.218;2022-11-10T09:31:25;45.10;;;16.83;;
40757;SDS011;26462;47.384;19.218;2022-11-10T09:34:11;41.17;;;15.95;;
40757;SDS011;26462;47.384;19.218;2022-11-10T09:36:56;48.10;;;16.92;;
40757;SDS011;26462;47.384;19.218;2022-11-10T09:39:42;43.33;;;17.00;;
40757;SDS011;26462;47.384;19.218;2022-11-10T09:42:38;45.78;;;16.15;;
40757;SDS011;26462;47.384;19.218;2022-11-10T09:45:26;37.72;;;14.43;;
40757;SDS011;26462;47.384;19.218;2022-11-10T09:48:23;42.03;;;17.02;;
40757;SDS011;26462;47.384;19.218;2022-11-10T09:51:14;45.17;;;16.05;;
40757;SDS011;26462;47.384;19.218;2022-11-10T09:54:03;46.22;;;15.85;;
40757;SDS011;26462;47.384;19.218;2022-11-10T09:56:59;43.42;;;15.98;;
40757;SDS011;26462;47.384;19.218;2022-11-10T09:59:48;38.40;;;15.93;;
40757;SDS011;26462;47.384;19.218;2022-11-10T10:02:44;43.75;;;17.80;;
40757;SDS011;26462;47.384;19.218;2022-11-10T10:05:47;43.55;;;17.20;;
40757;SDS011;26462;47.384;19.218;2022-11-10T10:11:56;46.47;;;18.15;;
40757;SDS011;26462;47.384;19.218;2022-11-10T10:18:28;40.40;;;16.40;;
40757;SDS011;26462;47.384;19.218;2022-11-10T10:24:29;44.20;;;17.17;;
40757;SDS011;26462;47.384;19.218;2022-11-10T10:27:19;40.25;;;15.50;;
40757;SDS011;26462;47.384;19.218;2022-11-10T10:30:11;43.20;;;18.35;;
40757;SDS011;26462;47.384;19.218;2022-11-10T10:33:12;42.97;;;16.50;;
40757;SDS011;26462;47.384;19.218;2022-11-10T10:36:05;42.58;;;17.75;;
40757;SDS011;26462;47.384;19.218;2022-11-10T10:39:00;39.05;;;17.17;;
40757;SDS011;26462;47.384;19.218;2022-11-10T10:41:49;42.17;;;16.85;;
40757;SDS011;26462;47.384;19.218;2022-11-10T10:44:34;46.55;;;18.98;;
40757;SDS011;26462;47.384;19.218;2022-11-10T10:47:21;42.72;;;18.70;;
40757;SDS011;26462;47.384;19.218;2022-11-10T10:53:18;46.45;;;19.60;;
40757;SDS011;26462;47.384;19.218;2022-11-10T10:56:19;42.72;;;17.85;;
40757;SDS011;26462;47.384;19.218;2022-11-10T10:59:15;47.22;;;19.50;;
40757;SDS011;26462;47.384;19.218;2022-11-10T11:02:15;49.58;;;18.63;;
40757;SDS011;26462;47.384;19.218;2022-11-10T11:05:15;43.22;;;16.83;;
40757;SDS011;26462;47.384;19.218;2022-11-10T11:08:02;49.60;;;19.63;;
40757;SDS011;26462;47.384;19.218;2022-11-10T11:10:48;44.08;;;17.85;;
40757;SDS011;26462;47.384;19.218;2022-11-10T11:13:34;43.55;;;16.60;;
40757;SDS011;26462;47.384;19.218;2022-11-10T11:16:19;48.80;;;19.05;;
40757;SDS011;26462;47.384;19.218;2022-11-10T11:19:06;44.90;;;18.05;;
40757;SDS011;26462;47.384;19.218;2022-11-10T11:31:18;41.60;;;16.13;;
40757;SDS011;26462;47.384;19.218;2022-11-10T11:34:16;44.42;;;18.40;;
40757;SDS011;26462;47.384;19.218;2022-11-10T11:43:06;64.70;;;27.58;;
40757;SDS011;26462;47.384;19.218;2022-11-10T11:46:13;49.10;;;23.02;;
40757;SDS011;26462;47.384;19.218;2022-11-10T11:49:52;45.20;;;19.85;;
40757;SDS011;26462;47.384;19.218;2022-11-10T12:08:19;49.30;;;21.58;;
40757;SDS011;26462;47.384;19.218;2022-11-10T12:11:19;50.95;;;24.85;;
40757;SDS011;26462;47.384;19.218;2022-11-10T12:14:25;47.05;;;22.27;;
40757;SDS011;26462;47.384;19.218;2022-11-10T12:17:20;49.00;;;21.10;;
40757;SDS011;26462;47.384;19.218;2022-11-10T12:29:48;44.35;;;19.52;;
40757;SDS011;26462;47.384;19.218;2022-11-10T12:32:48;43.33;;;19.10;;
40757;SDS011;26462;47.384;19.218;2022-11-10T12:35:41;45.00;;;19.10;;
40757;SDS011;26462;47.384;19.218;2022-11-10T12:41:24;43.05;;;15.85;;
40757;SDS011;26462;47.384;19.218;2022-11-10T12:44:24;42.55;;;17.27;;
40757;SDS011;26462;47.384;19.218;2022-11-10T12:47:31;38.67;;;16.83;;
40757;SDS011;26462;47.384;19.218;2022-11-10T12:50:23;42.58;;;16.58;;
40757;SDS011;26462;47.384;19.218;2022-11-10T12:53:23;39.97;;;16.60;;
40757;SDS011;26462;47.384;19.218;2022-11-10T12:56:16;40.22;;;16.52;;
40757;SDS011;26462;47.384;19.218;2022-11-10T12:59:14;45.33;;;16.42;;
40757;SDS011;26462;47.384;19.218;2022-11-10T13:05:16;41.90;;;17.40;;
40757;SDS011;26462;47.384;19.218;2022-11-10T13:08:23;45.08;;;17.85;;
40757;SDS011;26462;47.384;19.218;2022-11-10T13:14:25;45.72;;;18.95;;
40757;SDS011;26462;47.384;19.218;2022-11-10T13:32:25;39.88;;;16.02;;
40757;SDS011;26462;47.384;19.218;2022-11-10T13:41:20;40.80;;;17.55;;
40757;SDS011;26462;47.384;19.218;2022-11-10T13:57:10;56.00;;;21.15;;
40757;SDS011;26462;47.384;19.218;2022-11-10T14:03:01;52.25;;;24.50;;
40757;SDS011;26462;47.384;19.218;2022-11-10T14:05:59;47.55;;;18.67;;
40757;SDS011;26462;47.384;19.218;2022-11-10T14:08:53;57.35;;;20.85;;
40757;SDS011;26462;47.384;19.218;2022-11-10T14:12:15;51.35;;;20.92;;
40757;SDS011;26462;47.384;19.218;2022-11-10T14:21:11;54.75;;;20.75;;
40757;SDS011;26462;47.384;19.218;2022-11-10T14:27:26;53.45;;;21.23;;
40757;SDS011;26462;47.384;19.218;2022-11-10T14:30:27;46.53;;;18.83;;
40757;SDS011;26462;47.384;19.218;2022-11-10T14:33:15;51.80;;;19.45;;
40757;SDS011;26462;47.384;19.218;2022-11-10T14:36:01;51.30;;;20.05;;
40757;SDS011;26462;47.384;19.218;2022-11-10T14:38:49;55.17;;;21.23;;
40757;SDS011;26462;47.384;19.218;2022-11-10T14:41:36;56.45;;;21.75;;
40757;SDS011;26462;47.384;19.218;2022-11-10T14:44:33;57.63;;;22.95;;
40757;SDS011;26462;47.384;19.218;2022-11-10T14:47:29;52.60;;;20.92;;
40757;SDS011;26462;47.384;19.218;2022-11-10T14:50:16;68.45;;;24.15;;
40757;SDS011;26462;47.384;19.218;2022-11-10T14:53:46;85.85;;;26.08;;
40757;SDS011;26462;47.384;19.218;2022-11-10T14:56:14;91.35;;;30.20;;
40757;SDS011;26462;47.384;19.218;2022-11-10T14:59:05;76.50;;;25.60;;
40757;SDS011;26462;47.384;19.218;2022-11-10T15:01:55;84.72;;;25.38;;
40757;SDS011;26462;47.384;19.218;2022-11-10T15:04:43;69.22;;;24.10;;
40757;SDS011;26462;47.384;19.218;2022-11-10T15:07:30;72.63;;;24.45;;
40757;SDS011;26462;47.384;19.218;2022-11-10T15:19:23;53.22;;;19.17;;
40757;SDS011;26462;47.384;19.218;2022-11-10T15:25:20;50.58;;;20.00;;
40757;SDS011;26462;47.384;19.218;2022-11-10T15:30:56;52.08;;;18.90;;
40757;SDS011;26462;47.384;19.218;2022-11-10T15:33:46;45.72;;;18.52;;
40757;SDS011;26462;47.384;19.218;2022-11-10T15:36:34;60.38;;;22.10;;
40757;SDS011;26462;47.384;19.218;2022-11-10T15:39:23;52.17;;;19.67;;
40757;SDS011;26462;47.384;19.218;2022-11-10T15:42:12;50.30;;;18.25;;
40757;SDS011;26462;47.384;19.218;2022-11-10T15:45:01;55.72;;;22.70;;
40757;SDS011;26462;47.384;19.218;2022-11-10T15:47:46;54.03;;;19.85;;
40757;SDS011;26462;47.384;19.218;2022-11-10T15:50:32;52.50;;;21.92;;
40757;SDS011;26462;47.384;19.218;2022-11-10T15:53:29;51.22;;;20.27;;
40757;SDS011;26462;47.384;19.218;2022-11-10T15:56:18;48.88;;;18.55;;
40757;SDS011;26462;47.384;19.218;2022-11-10T15:59:05;49.75;;;17.83;;
40757;SDS011;26462;47.384;19.218;2022-11-10T16:01:53;51.92;;;19.95;;
40757;SDS011;26462;47.384;19.218;2022-11-10T16:04:39;50.95;;;19.65;;
40757;SDS011;26462;47.384;19.218;2022-11-10T16:07:25;54.58;;;19.73;;
40757;SDS011;26462;47.384;19.218;2022-11-10T16:10:11;47.53;;;17.15;;
40757;SDS011;26462;47.384;19.218;2022-11-10T16:12:57;47.67;;;18.23;;
40757;SDS011;26462;47.384;19.218;2022-11-10T16:15:43;49.78;;;20.23;;
40757;SDS011;26462;47.384;19.218;2022-11-10T16:18:31;45.95;;;18.00;;
40757;SDS011;26462;47.384;19.218;2022-11-10T16:21:22;45.95;;;18.63;;
40757;SDS011;26462;47.384;19.218;2022-11-10T16:24:08;46.38;;;17.90;;
40757;SDS011;26462;47.384;19.218;2022-11-10T16:26:54;45.45;;;17.05;;
40757;SDS011;26462;47.384;19.218;2022-11-10T16:29:40;47.78;;;18.98;;
40757;SDS011;26462;47.384;19.218;2022-11-10T16:32:26;41.50;;;16.30;;
40757;SDS011;26462;47.384;19.218;2022-11-10T16:35:12;43.80;;;16.50;;
40757;SDS011;26462;47.384;19.218;2022-11-10T16:37:58;43.30;;;16.17;;
40757;SDS011;26462;47.384;19.218;2022-11-10T16:40:49;42.65;;;16.17;;
40757;SDS011;26462;47.384;19.218;2022-11-10T16:43:38;40.00;;;15.93;;
40757;SDS011;26462;47.384;19.218;2022-11-10T16:46:25;44.53;;;17.25;;
40757;SDS011;26462;47.384;19.218;2022-11-10T16:52:11;48.97;;;17.98;;
40757;SDS011;26462;47.384;19.218;2022-11-10T16:54:59;44.97;;;18.23;;
40757;SDS011;26462;47.384;19.218;2022-11-10T16:57:44;52.38;;;18.75;;
40757;SDS011;26462;47.384;19.218;2022-11-10T17:00:31;42.92;;;16.02;;
40757;SDS011;26462;47.384;19.218;2022-11-10T17:03:23;43.75;;;16.23;;
40757;SDS011;26462;47.384;19.218;2022-11-10T17:06:15;40.08;;;15.25;;
40757;SDS011;26462;47.384;19.218;2022-11-10T17:09:06;43.65;;;16.27;;
40757;SDS011;26462;47.384;19.218;2022-11-10T17:11:55;45.05;;;16.55;;
40757;SDS011;26462;47.384;19.218;2022-11-10T17:14:41;44.75;;;16.35;;
40757;SDS011;26462;47.384;19.218;2022-11-10T17:17:27;48.88;;;18.63;;
40757;SDS011;26462;47.384;19.218;2022-11-10T17:20:17;49.47;;;18.55;;
40757;SDS011;26462;47.384;19.218;2022-11-10T17:23:30;47.13;;;19.15;;
40757;SDS011;26462;47.384;19.218;2022-11-10T17:26:19;48.17;;;19.85;;
40757;SDS011;26462;47.384;19.218;2022-11-10T17:29:05;49.08;;;19.27;;
40757;SDS011;26462;47.384;19.218;2022-11-10T17:31:53;39.95;;;16.23;;
40757;SDS011;26462;47.384;19.218;2022-11-10T17:34:40;46.85;;;17.58;;
40757;SDS011;26462;47.384;19.218;2022-11-10T17:37:25;45.55;;;19.10;;
40757;SDS011;26462;47.384;19.218;2022-11-10T17:43:07;46.65;;;19.63;;
40757;SDS011;26462;47.384;19.218;2022-11-10T17:45:56;46.17;;;17.88;;
40757;SDS011;26462;47.384;19.218;2022-11-10T17:48:44;42.95;;;16.85;;
40757;SDS011;26462;47.384;19.218;2022-11-10T17:51:32;51.03;;;18.40;;
40757;SDS011;26462;47.384;19.218;2022-11-10T17:54:19;45.28;;;19.25;;
40757;SDS011;26462;47.384;19.218;2022-11-10T17:57:06;47.70;;;17.98;;
40757;SDS011;26462;47.384;19.218;2022-11-10T17:59:54;45.72;;;19.40;;
40757;SDS011;26462;47.384;19.218;2022-11-10T18:02:41;48.78;;;20.17;;
40757;SDS011;26462;47.384;19.218;2022-11-10T18:05:28;52.10;;;22.75;;
40757;SDS011;26462;47.384;19.218;2022-11-10T18:08:17;53.63;;;27.10;;
40757;SDS011;26462;47.384;19.218;2022-11-10T18:11:03;51.83;;;22.50;;
40757;SDS011;26462;47.384;19.218;2022-11-10T18:13:49;51.60;;;22.85;;
40757;SDS011;26462;47.384;19.218;2022-11-10T18:16:36;48.67;;;24.48;;
40757;SDS011;26462;47.384;19.218;2022-11-10T18:19:25;45.90;;;20.40;;